sensor_id;sensor_type;location;lat;lon;timestamp;temperature;humidity
3684;DHT22;1858;48.716;9.648;2023-08-08T00:01:59;11.50;99.90
3684;DHT22;1858;48.716;9.648;2023-08-08T00:04:44;11.40;99.90
3684;DHT22;1858;48.716;9.648;2023-08-08T00:07:30;11.40;99.90
3684;DHT22;1858;48.716;9.648;2023-08-08T00:10:16;11.40;99.90
3684;DHT22;1858;48.716;9.648;2023-08-08T00:13:01;11.30;99.90
3684;DHT22;1858;48.716;9.648;2023-08-08T00:15:47;11.30;99.90
3684;DHT22;1858;48.716;9.648;2023-08-08T00:21:38;11.20;99.90
3684;DHT22;1858;48.716;9.648;2023-08-08T00:24:24;11.10;99.90
3684;DHT22;1858;48.716;9.648;2023-08-08T00:27:09;11.10;99.90
3684;DHT22;1858;48.716;9.648;2023-08-08T00:29:55;11.10;99.90
3684;DHT22;1858;48.716;9.648;2023-08-08T00:35:45;11.00;1.00
3684;DHT22;1858;48.716;9.648;2023-08-08T00:38:31;10.90;1.00
3684;DHT22;1858;48.716;9.648;2023-08-08T00:41:17;10.90;1.00
3684;DHT22;1858;48.716;9.648;2023-08-08T00:44:02;10.90;1.00
3684;DHT22;1858;48.716;9.648;2023-08-08T00:46:48;10.80;1.00
3684;DHT22;1858;48.716;9.648;2023-08-08T00:49:34;10.80;1.00
3684;DHT22;1858;48.716;9.648;2023-08-08T00:52:20;10.70;1.00
3684;DHT22;1858;48.716;9.648;2023-08-08T00:55:06;10.80;1.00
3684;DHT22;1858;48.716;9.648;2023-08-08T00:57:52;10.90;1.00
3684;DHT22;1858;48.716;9.648;2023-08-08T01:03:49;10.90;1.00
3684;DHT22;1858;48.716;9.648;2023-08-08T01:06:37;11.00;1.00
3684;DHT22;1858;48.716;9.648;2023-08-08T01:09:26;11.00;1.00
3684;DHT22;1858;48.716;9.648;2023-08-08T01:12:11;11.10;5.90
3684;DHT22;1858;48.716;9.648;2023-08-08T01:15:02;11.20;3.80
3684;DHT22;1858;48.716;9.648;2023-08-08T01:17:45;11.20;1.00
3684;DHT22;1858;48.716;9.648;2023-08-08T01:20:32;11.20;1.00
3684;DHT22;1858;48.716;9.648;2023-08-08T01:23:26;11.20;1.00
3684;DHT22;1858;48.716;9.648;2023-08-08T01:26:12;11.30;1.00
3684;DHT22;1858;48.716;9.648;2023-08-08T01:29:00;11.30;1.00
3684;DHT22;1858;48.716;9.648;2023-08-08T01:31:44;11.40;1.00
3684;DHT22;1858;48.716;9.648;2023-08-08T01:34:30;11.40;99.90
3684;DHT22;1858;48.716;9.648;2023-08-08T01:40:19;11.40;99.90
3684;DHT22;1858;48.716;9.648;2023-08-08T01:43:06;11.40;99.90
3684;DHT22;1858;48.716;9.648;2023-08-08T01:45:52;11.40;99.90
3684;DHT22;1858;48.716;9.648;2023-08-08T01:48:38;11.50;99.90
3684;DHT22;1858;48.716;9.648;2023-08-08T01:54:29;11.60;99.90
3684;DHT22;1858;48.716;9.648;2023-08-08T01:57:15;11.60;99.90
3684;DHT22;1858;48.716;9.648;2023-08-08T02:00:01;11.60;99.90
3684;DHT22;1858;48.716;9.648;2023-08-08T02:02:49;11.60;99.90
3684;DHT22;1858;48.716;9.648;2023-08-08T02:05:35;11.70;29.90
3684;DHT22;1858;48.716;9.648;2023-08-08T02:08:20;11.70;6.60
3684;DHT22;1858;48.716;9.648;2023-08-08T02:11:06;11.70;16.80
3684;DHT22;1858;48.716;9.648;2023-08-08T02:13:52;11.70;50.80
3684;DHT22;1858;48.716;9.648;2023-08-08T02:16:37;11.80;36.50
3684;DHT22;1858;48.716;9.648;2023-08-08T02:19:24;11.80;1.00
3684;DHT22;1858;48.716;9.648;2023-08-08T02:22:09;11.80;1.00
3684;DHT22;1858;48.716;9.648;2023-08-08T02:24:55;11.80;1.00
3684;DHT22;1858;48.716;9.648;2023-08-08T02:27:41;11.70;1.00
3684;DHT22;1858;48.716;9.648;2023-08-08T02:30:27;11.80;1.00
3684;DHT22;1858;48.716;9.648;2023-08-08T02:33:12;11.80;1.00
3684;DHT22;1858;48.716;9.648;2023-08-08T02:35:57;11.80;4.40
3684;DHT22;1858;48.716;9.648;2023-08-08T02:41:48;11.80;44.40
3684;DHT22;1858;48.716;9.648;2023-08-08T02:44:34;11.80;35.10
3684;DHT22;1858;48.716;9.648;2023-08-08T02:47:20;11.80;52.30
3684;DHT22;1858;48.716;9.648;2023-08-08T02:50:06;11.90;5.00
3684;DHT22;1858;48.716;9.648;2023-08-08T02:52:51;11.90;1.00
3684;DHT22;1858;48.716;9.648;2023-08-08T02:55:37;12.00;1.00
3684;DHT22;1858;48.716;9.648;2023-08-08T02:58:23;12.00;1.00
3684;DHT22;1858;48.716;9.648;2023-08-08T03:01:08;12.00;1.00
3684;DHT22;1858;48.716;9.648;2023-08-08T03:03:54;12.00;1.00
3684;DHT22;1858;48.716;9.648;2023-08-08T03:06:40;12.00;1.00
3684;DHT22;1858;48.716;9.648;2023-08-08T03:09:25;12.00;1.00
3684;DHT22;1858;48.716;9.648;2023-08-08T03:12:11;12.10;1.00
3684;DHT22;1858;48.716;9.648;2023-08-08T03:14:57;12.00;1.00
3684;DHT22;1858;48.716;9.648;2023-08-08T03:17:44;12.00;1.00
3684;DHT22;1858;48.716;9.648;2023-08-08T03:20:30;12.00;1.00
3684;DHT22;1858;48.716;9.648;2023-08-08T03:23:16;11.90;1.00
3684;DHT22;1858;48.716;9.648;2023-08-08T03:26:01;12.00;1.00
3684;DHT22;1858;48.716;9.648;2023-08-08T03:28:47;12.00;1.00
3684;DHT22;1858;48.716;9.648;2023-08-08T03:31:34;12.00;1.00
3684;DHT22;1858;48.716;9.648;2023-08-08T03:34:19;12.00;1.00
3684;DHT22;1858;48.716;9.648;2023-08-08T03:37:05;11.90;1.00
3684;DHT22;1858;48.716;9.648;2023-08-08T03:39:51;12.00;1.00
3684;DHT22;1858;48.716;9.648;2023-08-08T03:42:36;12.00;1.00
3684;DHT22;1858;48.716;9.648;2023-08-08T03:45:22;11.90;1.00
3684;DHT22;1858;48.716;9.648;2023-08-08T03:48:07;11.90;1.00
3684;DHT22;1858;48.716;9.648;2023-08-08T03:50:53;12.00;1.00
3684;DHT22;1858;48.716;9.648;2023-08-08T03:53:39;12.00;1.00
3684;DHT22;1858;48.716;9.648;2023-08-08T03:56:25;11.90;1.00
3684;DHT22;1858;48.716;9.648;2023-08-08T03:59:12;12.00;1.00
3684;DHT22;1858;48.716;9.648;2023-08-08T04:02:00;12.00;1.00
3684;DHT22;1858;48.716;9.648;2023-08-08T04:04:45;11.90;1.00
3684;DHT22;1858;48.716;9.648;2023-08-08T04:07:31;11.90;1.00
3684;DHT22;1858;48.716;9.648;2023-08-08T04:10:17;11.90;1.00
3684;DHT22;1858;48.716;9.648;2023-08-08T04:13:02;11.90;1.00
3684;DHT22;1858;48.716;9.648;2023-08-08T04:15:48;12.00;1.00
3684;DHT22;1858;48.716;9.648;2023-08-08T04:18:35;12.00;1.00
3684;DHT22;1858;48.716;9.648;2023-08-08T04:21:20;12.10;1.00
3684;DHT22;1858;48.716;9.648;2023-08-08T04:24:06;12.10;1.00
3684;DHT22;1858;48.716;9.648;2023-08-08T04:26:52;12.20;1.00
3684;DHT22;1858;48.716;9.648;2023-08-08T04:29:40;12.20;1.00
3684;DHT22;1858;48.716;9.648;2023-08-08T04:32:26;12.30;1.00
3684;DHT22;1858;48.716;9.648;2023-08-08T04:35:12;12.30;1.00
3684;DHT22;1858;48.716;9.648;2023-08-08T04:37:57;12.30;1.00
3684;DHT22;1858;48.716;9.648;2023-08-08T04:40:43;12.40;1.00
3684;DHT22;1858;48.716;9.648;2023-08-08T04:43:29;12.40;1.00
3684;DHT22;1858;48.716;9.648;2023-08-08T04:46:15;12.40;1.00
3684;DHT22;1858;48.716;9.648;2023-08-08T04:49:00;12.50;1.00
3684;DHT22;1858;48.716;9.648;2023-08-08T04:51:46;12.50;1.00
3684;DHT22;1858;48.716;9.648;2023-08-08T04:54:31;12.60;1.00
3684;DHT22;1858;48.716;9.648;2023-08-08T04:57:17;12.60;1.00
3684;DHT22;1858;48.716;9.648;2023-08-08T05:00:03;12.70;1.00
3684;DHT22;1858;48.716;9.648;2023-08-08T05:02:50;12.70;1.00
3684;DHT22;1858;48.716;9.648;2023-08-08T05:05:36;12.70;1.00
3684;DHT22;1858;48.716;9.648;2023-08-08T05:08:21;12.70;1.00
3684;DHT22;1858;48.716;9.648;2023-08-08T05:11:07;12.80;1.00
3684;DHT22;1858;48.716;9.648;2023-08-08T05:13:53;12.90;1.00
3684;DHT22;1858;48.716;9.648;2023-08-08T05:16:39;13.00;1.00
3684;DHT22;1858;48.716;9.648;2023-08-08T05:19:25;13.00;1.00
3684;DHT22;1858;48.716;9.648;2023-08-08T05:25:15;13.10;99.90
3684;DHT22;1858;48.716;9.648;2023-08-08T05:28:01;13.00;99.90
3684;DHT22;1858;48.716;9.648;2023-08-08T05:30:47;13.20;99.90
3684;DHT22;1858;48.716;9.648;2023-08-08T05:33:33;13.30;99.90
3684;DHT22;1858;48.716;9.648;2023-08-08T05:36:18;13.30;99.90
3684;DHT22;1858;48.716;9.648;2023-08-08T05:39:04;13.50;99.90
3684;DHT22;1858;48.716;9.648;2023-08-08T05:41:51;13.60;99.90
3684;DHT22;1858;48.716;9.648;2023-08-08T05:44:37;13.80;99.90
3684;DHT22;1858;48.716;9.648;2023-08-08T05:47:23;14.00;99.90
3684;DHT22;1858;48.716;9.648;2023-08-08T05:50:09;14.30;45.80
3684;DHT22;1858;48.716;9.648;2023-08-08T05:52:55;14.50;1.00
3684;DHT22;1858;48.716;9.648;2023-08-08T05:55:41;14.60;1.00
3684;DHT22;1858;48.716;9.648;2023-08-08T05:58:27;14.70;1.00
3684;DHT22;1858;48.716;9.648;2023-08-08T06:01:13;14.70;99.90
3684;DHT22;1858;48.716;9.648;2023-08-08T06:03:58;14.80;99.90
3684;DHT22;1858;48.716;9.648;2023-08-08T06:06:44;15.00;99.90
3684;DHT22;1858;48.716;9.648;2023-08-08T06:09:31;15.10;99.90
3684;DHT22;1858;48.716;9.648;2023-08-08T06:12:17;15.30;99.90
3684;DHT22;1858;48.716;9.648;2023-08-08T06:15:03;15.30;38.30
3684;DHT22;1858;48.716;9.648;2023-08-08T06:17:49;15.40;10.90
3684;DHT22;1858;48.716;9.648;2023-08-08T06:20:34;15.50;1.00
3684;DHT22;1858;48.716;9.648;2023-08-08T06:23:20;15.60;1.00
3684;DHT22;1858;48.716;9.648;2023-08-08T06:26:05;15.60;1.00
3684;DHT22;1858;48.716;9.648;2023-08-08T06:28:51;15.60;1.00
3684;DHT22;1858;48.716;9.648;2023-08-08T06:31:36;15.70;1.00
3684;DHT22;1858;48.716;9.648;2023-08-08T06:34:22;15.70;1.00
3684;DHT22;1858;48.716;9.648;2023-08-08T06:37:08;15.90;1.00
3684;DHT22;1858;48.716;9.648;2023-08-08T06:39:53;16.10;1.00
3684;DHT22;1858;48.716;9.648;2023-08-08T06:42:39;16.20;1.00
3684;DHT22;1858;48.716;9.648;2023-08-08T06:45:24;16.50;1.00
3684;DHT22;1858;48.716;9.648;2023-08-08T06:48:10;16.70;1.00
3684;DHT22;1858;48.716;9.648;2023-08-08T06:50:55;17.10;1.00
3684;DHT22;1858;48.716;9.648;2023-08-08T06:53:42;17.50;1.00
3684;DHT22;1858;48.716;9.648;2023-08-08T06:56:27;18.20;1.00
3684;DHT22;1858;48.716;9.648;2023-08-08T06:59:12;18.90;99.90
3684;DHT22;1858;48.716;9.648;2023-08-08T07:01:58;19.90;99.90
3684;DHT22;1858;48.716;9.648;2023-08-08T07:04:43;21.00;99.90
3684;DHT22;1858;48.716;9.648;2023-08-08T07:07:29;22.50;99.90
3684;DHT22;1858;48.716;9.648;2023-08-08T07:10:16;24.30;40.50
3684;DHT22;1858;48.716;9.648;2023-08-08T07:13:04;27.10;1.00
3684;DHT22;1858;48.716;9.648;2023-08-08T07:15:50;27.00;1.00
3684;DHT22;1858;48.716;9.648;2023-08-08T07:18:36;27.70;1.00
3684;DHT22;1858;48.716;9.648;2023-08-08T07:21:22;28.90;1.00
3684;DHT22;1858;48.716;9.648;2023-08-08T07:24:07;30.50;1.00
3684;DHT22;1858;48.716;9.648;2023-08-08T07:26:55;31.70;1.00
3684;DHT22;1858;48.716;9.648;2023-08-08T07:29:41;31.80;1.00
3684;DHT22;1858;48.716;9.648;2023-08-08T07:35:32;32.60;1.00
3684;DHT22;1858;48.716;9.648;2023-08-08T07:38:18;33.70;1.00
3684;DHT22;1858;48.716;9.648;2023-08-08T07:41:04;33.80;1.00
3684;DHT22;1858;48.716;9.648;2023-08-08T07:43:49;33.70;1.00
3684;DHT22;1858;48.716;9.648;2023-08-08T07:46:35;32.80;1.00
3684;DHT22;1858;48.716;9.648;2023-08-08T07:49:21;32.50;1.00
3684;DHT22;1858;48.716;9.648;2023-08-08T07:52:07;32.90;1.00
3684;DHT22;1858;48.716;9.648;2023-08-08T07:54:52;34.10;1.00
3684;DHT22;1858;48.716;9.648;2023-08-08T07:57:38;35.00;1.00
3684;DHT22;1858;48.716;9.648;2023-08-08T08:00:24;35.80;99.90
3684;DHT22;1858;48.716;9.648;2023-08-08T08:03:10;36.40;99.90
3684;DHT22;1858;48.716;9.648;2023-08-08T08:05:56;36.70;99.90
3684;DHT22;1858;48.716;9.648;2023-08-08T08:08:42;37.20;99.90
3684;DHT22;1858;48.716;9.648;2023-08-08T08:11:27;37.90;99.90
3684;DHT22;1858;48.716;9.648;2023-08-08T08:14:13;37.60;99.90
3684;DHT22;1858;48.716;9.648;2023-08-08T08:16:58;37.10;99.90
3684;DHT22;1858;48.716;9.648;2023-08-08T08:19:44;36.70;99.90
3684;DHT22;1858;48.716;9.648;2023-08-08T08:22:30;37.00;99.90
3684;DHT22;1858;48.716;9.648;2023-08-08T08:25:15;37.60;99.90
3684;DHT22;1858;48.716;9.648;2023-08-08T08:28:01;37.80;99.90
3684;DHT22;1858;48.716;9.648;2023-08-08T08:30:46;37.90;99.90
3684;DHT22;1858;48.716;9.648;2023-08-08T08:33:32;38.20;99.90
3684;DHT22;1858;48.716;9.648;2023-08-08T08:36:18;38.10;99.90
3684;DHT22;1858;48.716;9.648;2023-08-08T08:39:05;36.80;99.90
3684;DHT22;1858;48.716;9.648;2023-08-08T08:41:54;36.00;99.90
3684;DHT22;1858;48.716;9.648;2023-08-08T08:44:38;34.80;99.90
3684;DHT22;1858;48.716;9.648;2023-08-08T08:47:25;33.80;99.90
3684;DHT22;1858;48.716;9.648;2023-08-08T08:53:18;32.20;99.90
3684;DHT22;1858;48.716;9.648;2023-08-08T08:56:04;32.50;99.90
3684;DHT22;1858;48.716;9.648;2023-08-08T08:58:50;32.30;99.90
3684;DHT22;1858;48.716;9.648;2023-08-08T09:01:36;32.80;99.90
3684;DHT22;1858;48.716;9.648;2023-08-08T09:04:22;32.80;99.90
3684;DHT22;1858;48.716;9.648;2023-08-08T09:07:08;32.50;99.90
3684;DHT22;1858;48.716;9.648;2023-08-08T09:09:54;32.00;99.90
3684;DHT22;1858;48.716;9.648;2023-08-08T09:12:40;32.30;99.90
3684;DHT22;1858;48.716;9.648;2023-08-08T09:15:29;33.30;99.90
3684;DHT22;1858;48.716;9.648;2023-08-08T09:18:13;33.70;99.90
3684;DHT22;1858;48.716;9.648;2023-08-08T09:20:58;33.40;99.90
3684;DHT22;1858;48.716;9.648;2023-08-08T09:23:44;32.70;99.90
3684;DHT22;1858;48.716;9.648;2023-08-08T09:26:29;32.80;99.90
3684;DHT22;1858;48.716;9.648;2023-08-08T09:29:15;33.60;99.90
3684;DHT22;1858;48.716;9.648;2023-08-08T09:32:04;34.20;99.90
3684;DHT22;1858;48.716;9.648;2023-08-08T09:34:51;35.50;99.90
3684;DHT22;1858;48.716;9.648;2023-08-08T09:37:37;36.40;99.90
3684;DHT22;1858;48.716;9.648;2023-08-08T09:40:43;36.20;99.90
3684;DHT22;1858;48.716;9.648;2023-08-08T09:43:28;36.50;99.90
3684;DHT22;1858;48.716;9.648;2023-08-08T09:46:35;36.40;99.90
3684;DHT22;1858;48.716;9.648;2023-08-08T09:49:21;35.80;99.90
3684;DHT22;1858;48.716;9.648;2023-08-08T09:52:07;34.50;99.90
3684;DHT22;1858;48.716;9.648;2023-08-08T09:54:53;34.10;99.90
3684;DHT22;1858;48.716;9.648;2023-08-08T09:57:39;34.10;99.90
3684;DHT22;1858;48.716;9.648;2023-08-08T10:00:26;33.90;99.90
3684;DHT22;1858;48.716;9.648;2023-08-08T10:03:13;34.40;99.90
3684;DHT22;1858;48.716;9.648;2023-08-08T10:09:04;36.10;99.90
3684;DHT22;1858;48.716;9.648;2023-08-08T10:11:49;36.70;99.90
3684;DHT22;1858;48.716;9.648;2023-08-08T10:14:35;37.20;99.90
3684;DHT22;1858;48.716;9.648;2023-08-08T10:17:22;37.30;99.90
3684;DHT22;1858;48.716;9.648;2023-08-08T10:20:08;36.70;99.90
3684;DHT22;1858;48.716;9.648;2023-08-08T10:22:56;35.80;99.90
3684;DHT22;1858;48.716;9.648;2023-08-08T10:25:45;35.30;99.90
3684;DHT22;1858;48.716;9.648;2023-08-08T10:28:36;35.30;99.90
3684;DHT22;1858;48.716;9.648;2023-08-08T10:31:19;35.30;99.90
3684;DHT22;1858;48.716;9.648;2023-08-08T10:34:06;35.00;99.90
3684;DHT22;1858;48.716;9.648;2023-08-08T10:36:52;34.80;99.90
3684;DHT22;1858;48.716;9.648;2023-08-08T10:39:38;35.00;99.90
3684;DHT22;1858;48.716;9.648;2023-08-08T10:42:25;35.40;99.90
3684;DHT22;1858;48.716;9.648;2023-08-08T10:45:11;34.40;99.90
3684;DHT22;1858;48.716;9.648;2023-08-08T10:48:06;33.20;99.90
3684;DHT22;1858;48.716;9.648;2023-08-08T10:50:45;33.20;99.90
3684;DHT22;1858;48.716;9.648;2023-08-08T10:53:32;32.70;99.90
3684;DHT22;1858;48.716;9.648;2023-08-08T10:56:18;33.00;99.90
3684;DHT22;1858;48.716;9.648;2023-08-08T10:59:18;32.90;99.90
3684;DHT22;1858;48.716;9.648;2023-08-08T11:02:04;33.00;99.90
3684;DHT22;1858;48.716;9.648;2023-08-08T11:04:50;32.60;99.90
3684;DHT22;1858;48.716;9.648;2023-08-08T11:07:36;32.00;99.90
3684;DHT22;1858;48.716;9.648;2023-08-08T11:10:22;31.40;99.90
3684;DHT22;1858;48.716;9.648;2023-08-08T11:13:08;31.90;99.90
3684;DHT22;1858;48.716;9.648;2023-08-08T11:15:53;32.50;99.90
3684;DHT22;1858;48.716;9.648;2023-08-08T11:18:41;32.50;99.90
3684;DHT22;1858;48.716;9.648;2023-08-08T11:21:26;32.20;99.90
3684;DHT22;1858;48.716;9.648;2023-08-08T11:24:12;32.20;99.90
3684;DHT22;1858;48.716;9.648;2023-08-08T11:26:58;32.00;99.90
3684;DHT22;1858;48.716;9.648;2023-08-08T11:29:50;31.40;99.90
3684;DHT22;1858;48.716;9.648;2023-08-08T11:35:44;30.60;99.90
3684;DHT22;1858;48.716;9.648;2023-08-08T11:38:34;29.80;99.90
3684;DHT22;1858;48.716;9.648;2023-08-08T11:41:21;29.10;99.90
3684;DHT22;1858;48.716;9.648;2023-08-08T11:44:08;28.70;99.90
3684;DHT22;1858;48.716;9.648;2023-08-08T11:46:53;28.30;99.90
3684;DHT22;1858;48.716;9.648;2023-08-08T11:49:42;28.00;99.90
3684;DHT22;1858;48.716;9.648;2023-08-08T11:52:27;27.80;99.90
3684;DHT22;1858;48.716;9.648;2023-08-08T11:55:13;28.00;99.90
3684;DHT22;1858;48.716;9.648;2023-08-08T11:57:59;28.10;99.90
3684;DHT22;1858;48.716;9.648;2023-08-08T12:00:45;28.10;99.90
3684;DHT22;1858;48.716;9.648;2023-08-08T12:03:33;28.20;99.90
3684;DHT22;1858;48.716;9.648;2023-08-08T12:06:22;28.20;99.90
3684;DHT22;1858;48.716;9.648;2023-08-08T12:09:07;27.80;99.90
3684;DHT22;1858;48.716;9.648;2023-08-08T12:11:53;27.60;99.90
3684;DHT22;1858;48.716;9.648;2023-08-08T12:14:38;27.70;99.90
3684;DHT22;1858;48.716;9.648;2023-08-08T12:17:25;27.70;99.90
3684;DHT22;1858;48.716;9.648;2023-08-08T12:20:11;27.60;99.90
3684;DHT22;1858;48.716;9.648;2023-08-08T12:22:57;27.50;99.90
3684;DHT22;1858;48.716;9.648;2023-08-08T12:25:43;27.50;99.90
3684;DHT22;1858;48.716;9.648;2023-08-08T12:28:30;27.40;99.90
3684;DHT22;1858;48.716;9.648;2023-08-08T12:31:17;27.20;99.90
3684;DHT22;1858;48.716;9.648;2023-08-08T12:34:03;27.20;99.90
3684;DHT22;1858;48.716;9.648;2023-08-08T12:36:50;27.00;99.90
3684;DHT22;1858;48.716;9.648;2023-08-08T12:39:36;26.90;99.90
3684;DHT22;1858;48.716;9.648;2023-08-08T12:42:22;26.80;99.90
3684;DHT22;1858;48.716;9.648;2023-08-08T12:45:08;26.50;99.90
3684;DHT22;1858;48.716;9.648;2023-08-08T12:47:55;26.70;99.90
3684;DHT22;1858;48.716;9.648;2023-08-08T12:50:41;26.80;99.90
3684;DHT22;1858;48.716;9.648;2023-08-08T12:53:28;26.80;99.90
3684;DHT22;1858;48.716;9.648;2023-08-08T12:56:14;26.80;99.90
3684;DHT22;1858;48.716;9.648;2023-08-08T12:59:00;26.60;99.90
3684;DHT22;1858;48.716;9.648;2023-08-08T13:01:48;26.60;99.90
3684;DHT22;1858;48.716;9.648;2023-08-08T13:04:34;26.60;99.90
3684;DHT22;1858;48.716;9.648;2023-08-08T13:07:20;26.80;99.90
3684;DHT22;1858;48.716;9.648;2023-08-08T13:10:07;26.80;99.90
3684;DHT22;1858;48.716;9.648;2023-08-08T13:12:53;26.80;99.90
3684;DHT22;1858;48.716;9.648;2023-08-08T13:15:41;27.00;99.90
3684;DHT22;1858;48.716;9.648;2023-08-08T13:18:27;26.80;99.90
3684;DHT22;1858;48.716;9.648;2023-08-08T13:21:14;26.80;99.90
3684;DHT22;1858;48.716;9.648;2023-08-08T13:24:00;26.80;99.90
3684;DHT22;1858;48.716;9.648;2023-08-08T13:26:47;26.60;99.90
3684;DHT22;1858;48.716;9.648;2023-08-08T13:29:33;26.70;99.90
3684;DHT22;1858;48.716;9.648;2023-08-08T13:32:20;26.90;99.90
3684;DHT22;1858;48.716;9.648;2023-08-08T13:35:06;26.80;99.90
3684;DHT22;1858;48.716;9.648;2023-08-08T13:37:53;26.80;99.90
3684;DHT22;1858;48.716;9.648;2023-08-08T13:40:41;26.80;99.90
3684;DHT22;1858;48.716;9.648;2023-08-08T13:43:27;26.60;99.90
3684;DHT22;1858;48.716;9.648;2023-08-08T13:46:15;26.40;99.90
3684;DHT22;1858;48.716;9.648;2023-08-08T13:49:01;26.30;99.90
3684;DHT22;1858;48.716;9.648;2023-08-08T13:51:47;26.00;99.90
3684;DHT22;1858;48.716;9.648;2023-08-08T13:54:34;25.70;99.90
3684;DHT22;1858;48.716;9.648;2023-08-08T13:57:21;25.70;99.90
3684;DHT22;1858;48.716;9.648;2023-08-08T14:00:08;25.40;99.90
3684;DHT22;1858;48.716;9.648;2023-08-08T14:02:57;25.30;1.00
3684;DHT22;1858;48.716;9.648;2023-08-08T14:05:44;25.20;1.00
3684;DHT22;1858;48.716;9.648;2023-08-08T14:08:50;24.90;1.00
3684;DHT22;1858;48.716;9.648;2023-08-08T14:11:37;24.60;1.00
3684;DHT22;1858;48.716;9.648;2023-08-08T14:14:23;24.40;1.00
3684;DHT22;1858;48.716;9.648;2023-08-08T14:17:10;24.30;1.00
3684;DHT22;1858;48.716;9.648;2023-08-08T14:19:56;24.20;1.00
3684;DHT22;1858;48.716;9.648;2023-08-08T14:22:46;24.10;1.00
3684;DHT22;1858;48.716;9.648;2023-08-08T14:25:32;23.90;1.00
3684;DHT22;1858;48.716;9.648;2023-08-08T14:28:19;23.70;1.00
3684;DHT22;1858;48.716;9.648;2023-08-08T14:31:05;23.70;1.00
3684;DHT22;1858;48.716;9.648;2023-08-08T14:33:52;23.90;1.00
3684;DHT22;1858;48.716;9.648;2023-08-08T14:36:38;24.20;1.00
3684;DHT22;1858;48.716;9.648;2023-08-08T14:39:25;24.60;1.00
3684;DHT22;1858;48.716;9.648;2023-08-08T14:42:12;24.80;1.00
3684;DHT22;1858;48.716;9.648;2023-08-08T14:44:58;24.90;1.00
3684;DHT22;1858;48.716;9.648;2023-08-08T14:47:44;25.00;1.00
3684;DHT22;1858;48.716;9.648;2023-08-08T14:50:32;24.90;1.00
3684;DHT22;1858;48.716;9.648;2023-08-08T14:53:18;25.00;1.00
3684;DHT22;1858;48.716;9.648;2023-08-08T14:56:04;25.20;1.00
3684;DHT22;1858;48.716;9.648;2023-08-08T14:58:51;25.20;1.00
3684;DHT22;1858;48.716;9.648;2023-08-08T15:01:37;25.30;1.00
3684;DHT22;1858;48.716;9.648;2023-08-08T15:04:43;25.20;1.00
3684;DHT22;1858;48.716;9.648;2023-08-08T15:07:29;25.10;1.00
3684;DHT22;1858;48.716;9.648;2023-08-08T15:10:15;25.00;1.00
3684;DHT22;1858;48.716;9.648;2023-08-08T15:13:02;24.90;1.00
3684;DHT22;1858;48.716;9.648;2023-08-08T15:15:48;24.80;1.00
3684;DHT22;1858;48.716;9.648;2023-08-08T15:18:34;24.40;1.00
3684;DHT22;1858;48.716;9.648;2023-08-08T15:21:21;24.30;1.00
3684;DHT22;1858;48.716;9.648;2023-08-08T15:24:08;24.10;1.00
3684;DHT22;1858;48.716;9.648;2023-08-08T15:26:54;23.90;1.00
3684;DHT22;1858;48.716;9.648;2023-08-08T15:29:41;23.70;1.00
3684;DHT22;1858;48.716;9.648;2023-08-08T15:32:27;23.80;1.00
3684;DHT22;1858;48.716;9.648;2023-08-08T15:35:14;23.70;1.00
3684;DHT22;1858;48.716;9.648;2023-08-08T15:38:00;23.70;1.00
3684;DHT22;1858;48.716;9.648;2023-08-08T15:40:47;23.60;1.00
3684;DHT22;1858;48.716;9.648;2023-08-08T15:43:34;23.60;1.00
3684;DHT22;1858;48.716;9.648;2023-08-08T15:46:40;23.60;1.00
3684;DHT22;1858;48.716;9.648;2023-08-08T15:49:26;23.60;1.00
3684;DHT22;1858;48.716;9.648;2023-08-08T15:52:13;23.70;1.00
3684;DHT22;1858;48.716;9.648;2023-08-08T15:54:59;23.70;1.00
3684;DHT22;1858;48.716;9.648;2023-08-08T15:57:45;23.70;1.00
3684;DHT22;1858;48.716;9.648;2023-08-08T16:00:31;23.70;1.00
3684;DHT22;1858;48.716;9.648;2023-08-08T16:03:18;23.60;1.00
3684;DHT22;1858;48.716;9.648;2023-08-08T16:06:04;23.50;1.00
3684;DHT22;1858;48.716;9.648;2023-08-08T16:08:52;23.30;1.00
3684;DHT22;1858;48.716;9.648;2023-08-08T16:11:38;23.10;1.00
3684;DHT22;1858;48.716;9.648;2023-08-08T16:14:24;22.90;1.00
3684;DHT22;1858;48.716;9.648;2023-08-08T16:17:11;22.90;1.00
3684;DHT22;1858;48.716;9.648;2023-08-08T16:19:57;23.00;1.00
3684;DHT22;1858;48.716;9.648;2023-08-08T16:22:46;23.30;1.00
3684;DHT22;1858;48.716;9.648;2023-08-08T16:25:33;23.30;1.00
3684;DHT22;1858;48.716;9.648;2023-08-08T16:28:19;23.50;1.00
3684;DHT22;1858;48.716;9.648;2023-08-08T16:31:05;23.30;1.00
3684;DHT22;1858;48.716;9.648;2023-08-08T16:33:52;23.10;1.00
3684;DHT22;1858;48.716;9.648;2023-08-08T16:39:37;23.00;1.00
3684;DHT22;1858;48.716;9.648;2023-08-08T16:42:23;22.80;1.00
3684;DHT22;1858;48.716;9.648;2023-08-08T16:45:10;22.60;1.00
3684;DHT22;1858;48.716;9.648;2023-08-08T16:47:57;22.40;1.00
3684;DHT22;1858;48.716;9.648;2023-08-08T16:50:43;22.40;1.00
3684;DHT22;1858;48.716;9.648;2023-08-08T16:53:29;22.40;1.00
3684;DHT22;1858;48.716;9.648;2023-08-08T16:56:17;22.40;1.00
3684;DHT22;1858;48.716;9.648;2023-08-08T16:59:03;22.30;1.00
3684;DHT22;1858;48.716;9.648;2023-08-08T17:01:50;22.30;1.00
3684;DHT22;1858;48.716;9.648;2023-08-08T17:04:36;22.20;1.00
3684;DHT22;1858;48.716;9.648;2023-08-08T17:07:22;22.20;1.00
3684;DHT22;1858;48.716;9.648;2023-08-08T17:10:10;22.20;1.00
3684;DHT22;1858;48.716;9.648;2023-08-08T17:13:16;22.20;1.00
3684;DHT22;1858;48.716;9.648;2023-08-08T17:16:03;22.10;1.00
3684;DHT22;1858;48.716;9.648;2023-08-08T17:18:50;22.10;1.00
3684;DHT22;1858;48.716;9.648;2023-08-08T17:21:38;22.10;1.00
3684;DHT22;1858;48.716;9.648;2023-08-08T17:24:25;22.00;1.00
3684;DHT22;1858;48.716;9.648;2023-08-08T17:27:11;22.00;1.00
3684;DHT22;1858;48.716;9.648;2023-08-08T17:29:57;22.00;1.00
3684;DHT22;1858;48.716;9.648;2023-08-08T17:32:44;22.10;1.00
3684;DHT22;1858;48.716;9.648;2023-08-08T17:35:30;22.10;1.00
3684;DHT22;1858;48.716;9.648;2023-08-08T17:38:35;22.20;1.00
3684;DHT22;1858;48.716;9.648;2023-08-08T17:41:21;22.20;1.00
3684;DHT22;1858;48.716;9.648;2023-08-08T17:44:08;22.10;1.00
3684;DHT22;1858;48.716;9.648;2023-08-08T17:47:13;22.10;1.00
3684;DHT22;1858;48.716;9.648;2023-08-08T17:50:00;22.00;1.00
3684;DHT22;1858;48.716;9.648;2023-08-08T17:52:48;21.70;1.00
3684;DHT22;1858;48.716;9.648;2023-08-08T17:55:34;21.70;1.00
3684;DHT22;1858;48.716;9.648;2023-08-08T17:58:21;21.60;1.00
3684;DHT22;1858;48.716;9.648;2023-08-08T18:01:07;21.50;1.00
3684;DHT22;1858;48.716;9.648;2023-08-08T18:03:53;21.40;1.00
3684;DHT22;1858;48.716;9.648;2023-08-08T18:06:40;21.40;1.00
3684;DHT22;1858;48.716;9.648;2023-08-08T18:12:33;21.30;1.00
3684;DHT22;1858;48.716;9.648;2023-08-08T18:15:20;21.20;1.00
3684;DHT22;1858;48.716;9.648;2023-08-08T18:18:06;21.10;1.00
3684;DHT22;1858;48.716;9.648;2023-08-08T18:20:53;21.00;1.00
3684;DHT22;1858;48.716;9.648;2023-08-08T18:23:39;20.90;1.00
3684;DHT22;1858;48.716;9.648;2023-08-08T18:26:25;20.70;1.00
3684;DHT22;1858;48.716;9.648;2023-08-08T18:29:11;20.60;1.00
3684;DHT22;1858;48.716;9.648;2023-08-08T18:31:56;20.40;1.00
3684;DHT22;1858;48.716;9.648;2023-08-08T18:34:42;20.30;1.00
3684;DHT22;1858;48.716;9.648;2023-08-08T18:37:28;20.20;1.00
3684;DHT22;1858;48.716;9.648;2023-08-08T18:40:14;20.10;1.00
3684;DHT22;1858;48.716;9.648;2023-08-08T18:43:01;20.10;1.00
3684;DHT22;1858;48.716;9.648;2023-08-08T18:45:47;20.10;1.00
3684;DHT22;1858;48.716;9.648;2023-08-08T18:48:37;20.00;1.00
3684;DHT22;1858;48.716;9.648;2023-08-08T18:51:23;20.00;1.00
3684;DHT22;1858;48.716;9.648;2023-08-08T18:54:08;19.90;1.00
3684;DHT22;1858;48.716;9.648;2023-08-08T18:56:55;19.70;1.00